sensor_id;sensor_type;location;lat;lon;timestamp;P1;durP1;ratioP1;P2;durP2;ratioP2
24383;SDS011;12504;52.870;8.798;2023-07-24T00:01:18;9.13;;;4.35;;
24383;SDS011;12504;52.870;8.798;2023-07-24T00:03:44;7.25;;;5.38;;
24383;SDS011;12504;52.870;8.798;2023-07-24T00:06:10;6.80;;;4.65;;
24383;SDS011;12504;52.870;8.798;2023-07-24T00:08:36;6.18;;;4.40;;
24383;SDS011;12504;52.870;8.798;2023-07-24T00:11:02;8.73;;;5.00;;
24383;SDS011;12504;52.870;8.798;2023-07-24T00:13:30;5.82;;;4.03;;
24383;SDS011;12504;52.870;8.798;2023-07-24T00:15:59;4.75;;;3.92;;
24383;SDS011;12504;52.870;8.798;2023-07-24T00:18:24;5.18;;;3.90;;
24383;SDS011;12504;52.870;8.798;2023-07-24T00:20:50;10.52;;;4.05;;
24383;SDS011;12504;52.870;8.798;2023-07-24T00:23:16;5.90;;;4.05;;
24383;SDS011;12504;52.870;8.798;2023-07-24T00:25:41;6.03;;;4.25;;
24383;SDS011;12504;52.870;8.798;2023-07-24T00:28:07;4.85;;;3.33;;
24383;SDS011;12504;52.870;8.798;2023-07-24T00:30:33;7.60;;;3.85;;
24383;SDS011;12504;52.870;8.798;2023-07-24T00:32:58;7.18;;;4.82;;
24383;SDS011;12504;52.870;8.798;2023-07-24T00:35:25;6.15;;;3.78;;
24383;SDS011;12504;52.870;8.798;2023-07-24T00:37:50;6.28;;;3.97;;
24383;SDS011;12504;52.870;8.798;2023-07-24T00:40:16;5.93;;;3.80;;
24383;SDS011;12504;52.870;8.798;2023-07-24T00:42:45;6.40;;;4.55;;
24383;SDS011;12504;52.870;8.798;2023-07-24T00:45:12;5.82;;;3.55;;
24383;SDS011;12504;52.870;8.798;2023-07-24T00:47:38;6.30;;;4.18;;
24383;SDS011;12504;52.870;8.798;2023-07-24T00:50:04;5.05;;;3.80;;
24383;SDS011;12504;52.870;8.798;2023-07-24T00:52:31;6.03;;;4.15;;
24383;SDS011;12504;52.870;8.798;2023-07-24T00:54:57;5.65;;;4.00;;
24383;SDS011;12504;52.870;8.798;2023-07-24T00:57:23;5.82;;;3.75;;
24383;SDS011;12504;52.870;8.798;2023-07-24T00:59:49;4.85;;;3.70;;
24383;SDS011;12504;52.870;8.798;2023-07-24T01:02:17;7.40;;;4.50;;
24383;SDS011;12504;52.870;8.798;2023-07-24T01:04:43;5.95;;;3.80;;
24383;SDS011;12504;52.870;8.798;2023-07-24T01:07:09;5.70;;;3.80;;
24383;SDS011;12504;52.870;8.798;2023-07-24T01:09:35;5.72;;;3.75;;
24383;SDS011;12504;52.870;8.798;2023-07-24T01:12:02;5.43;;;3.65;;
24383;SDS011;12504;52.870;8.798;2023-07-24T01:14:46;6.47;;;3.90;;
24383;SDS011;12504;52.870;8.798;2023-07-24T01:17:15;5.88;;;3.55;;
24383;SDS011;12504;52.870;8.798;2023-07-24T01:19:49;6.35;;;4.00;;
24383;SDS011;12504;52.870;8.798;2023-07-24T01:25:09;8.48;;;4.30;;
24383;SDS011;12504;52.870;8.798;2023-07-24T01:27:54;6.57;;;4.20;;
24383;SDS011;12504;52.870;8.798;2023-07-24T01:30:19;7.25;;;3.83;;
24383;SDS011;12504;52.870;8.798;2023-07-24T01:32:46;6.30;;;3.75;;
24383;SDS011;12504;52.870;8.798;2023-07-24T01:35:12;5.97;;;4.10;;
24383;SDS011;12504;52.870;8.798;2023-07-24T01:37:37;6.28;;;4.22;;
24383;SDS011;12504;52.870;8.798;2023-07-24T01:40:08;8.13;;;4.35;;
24383;SDS011;12504;52.870;8.798;2023-07-24T01:42:36;5.15;;;3.65;;
24383;SDS011;12504;52.870;8.798;2023-07-24T01:45:02;5.18;;;4.07;;
24383;SDS011;12504;52.870;8.798;2023-07-24T01:47:29;7.00;;;4.63;;
24383;SDS011;12504;52.870;8.798;2023-07-24T01:49:55;7.05;;;4.15;;
24383;SDS011;12504;52.870;8.798;2023-07-24T01:52:21;5.78;;;3.47;;
24383;SDS011;12504;52.870;8.798;2023-07-24T01:54:47;6.22;;;4.45;;
24383;SDS011;12504;52.870;8.798;2023-07-24T01:57:13;6.60;;;4.15;;
24383;SDS011;12504;52.870;8.798;2023-07-24T01:59:38;5.80;;;3.67;;
24383;SDS011;12504;52.870;8.798;2023-07-24T02:02:05;6.13;;;3.63;;
24383;SDS011;12504;52.870;8.798;2023-07-24T02:04:30;6.72;;;3.60;;
24383;SDS011;12504;52.870;8.798;2023-07-24T02:06:56;8.13;;;4.13;;
24383;SDS011;12504;52.870;8.798;2023-07-24T02:09:22;5.35;;;4.03;;
24383;SDS011;12504;52.870;8.798;2023-07-24T02:11:48;6.38;;;3.97;;
24383;SDS011;12504;52.870;8.798;2023-07-24T02:14:14;5.25;;;3.45;;
24383;SDS011;12504;52.870;8.798;2023-07-24T02:16:42;5.88;;;3.20;;
24383;SDS011;12504;52.870;8.798;2023-07-24T02:19:08;7.53;;;4.25;;
24383;SDS011;12504;52.870;8.798;2023-07-24T02:21:34;5.63;;;3.90;;
24383;SDS011;12504;52.870;8.798;2023-07-24T02:23:59;6.15;;;4.00;;
24383;SDS011;12504;52.870;8.798;2023-07-24T02:26:25;6.63;;;3.78;;
24383;SDS011;12504;52.870;8.798;2023-07-24T02:28:51;8.63;;;3.85;;
24383;SDS011;12504;52.870;8.798;2023-07-24T02:31:17;6.70;;;4.00;;
24383;SDS011;12504;52.870;8.798;2023-07-24T02:33:42;6.57;;;4.18;;
24383;SDS011;12504;52.870;8.798;2023-07-24T02:36:08;6.20;;;3.90;;
24383;SDS011;12504;52.870;8.798;2023-07-24T02:38:34;5.28;;;3.60;;
24383;SDS011;12504;52.870;8.798;2023-07-24T02:40:59;5.30;;;3.75;;
24383;SDS011;12504;52.870;8.798;2023-07-24T02:43:25;5.18;;;3.63;;
24383;SDS011;12504;52.870;8.798;2023-07-24T02:45:50;5.82;;;3.95;;
24383;SDS011;12504;52.870;8.798;2023-07-24T02:48:16;5.95;;;3.90;;
24383;SDS011;12504;52.870;8.798;2023-07-24T02:50:42;6.78;;;4.30;;
24383;SDS011;12504;52.870;8.798;2023-07-24T02:53:08;5.93;;;3.92;;
24383;SDS011;12504;52.870;8.798;2023-07-24T02:55:33;10.77;;;4.78;;
24383;SDS011;12504;52.870;8.798;2023-07-24T02:57:59;5.55;;;3.38;;
24383;SDS011;12504;52.870;8.798;2023-07-24T03:00:25;6.25;;;3.50;;
24383;SDS011;12504;52.870;8.798;2023-07-24T03:02:51;8.05;;;3.90;;
24383;SDS011;12504;52.870;8.798;2023-07-24T03:05:17;4.65;;;3.40;;
24383;SDS011;12504;52.870;8.798;2023-07-24T03:07:43;5.32;;;3.10;;
24383;SDS011;12504;52.870;8.798;2023-07-24T03:10:09;5.00;;;3.63;;
24383;SDS011;12504;52.870;8.798;2023-07-24T03:12:35;5.15;;;3.20;;
24383;SDS011;12504;52.870;8.798;2023-07-24T03:15:01;6.68;;;3.75;;
24383;SDS011;12504;52.870;8.798;2023-07-24T03:17:27;4.72;;;3.05;;
24383;SDS011;12504;52.870;8.798;2023-07-24T03:19:54;6.93;;;3.40;;
24383;SDS011;12504;52.870;8.798;2023-07-24T03:22:19;4.32;;;3.22;;
24383;SDS011;12504;52.870;8.798;2023-07-24T03:24:45;8.55;;;4.60;;
24383;SDS011;12504;52.870;8.798;2023-07-24T03:27:11;6.40;;;4.30;;
24383;SDS011;12504;52.870;8.798;2023-07-24T03:29:38;5.55;;;3.72;;
24383;SDS011;12504;52.870;8.798;2023-07-24T03:32:06;5.80;;;4.05;;
24383;SDS011;12504;52.870;8.798;2023-07-24T03:34:32;7.35;;;4.32;;
24383;SDS011;12504;52.870;8.798;2023-07-24T03:36:58;5.10;;;3.65;;
24383;SDS011;12504;52.870;8.798;2023-07-24T03:39:23;5.07;;;3.70;;
24383;SDS011;12504;52.870;8.798;2023-07-24T03:41:50;6.30;;;3.78;;
24383;SDS011;12504;52.870;8.798;2023-07-24T03:44:16;6.93;;;4.30;;
24383;SDS011;12504;52.870;8.798;2023-07-24T03:46:42;5.47;;;3.95;;
24383;SDS011;12504;52.870;8.798;2023-07-24T03:49:07;5.95;;;4.00;;
24383;SDS011;12504;52.870;8.798;2023-07-24T03:51:33;7.00;;;3.67;;
24383;SDS011;12504;52.870;8.798;2023-07-24T03:53:59;5.57;;;3.95;;
24383;SDS011;12504;52.870;8.798;2023-07-24T03:56:25;7.10;;;4.28;;
24383;SDS011;12504;52.870;8.798;2023-07-24T03:58:50;6.72;;;4.63;;
24383;SDS011;12504;52.870;8.798;2023-07-24T04:01:17;6.63;;;4.10;;
24383;SDS011;12504;52.870;8.798;2023-07-24T04:03:43;7.30;;;4.10;;
24383;SDS011;12504;52.870;8.798;2023-07-24T04:06:10;5.78;;;3.85;;
24383;SDS011;12504;52.870;8.798;2023-07-24T04:08:35;5.88;;;3.85;;
24383;SDS011;12504;52.870;8.798;2023-07-24T04:11:01;9.90;;;5.45;;
24383;SDS011;12504;52.870;8.798;2023-07-24T04:13:26;5.03;;;3.67;;
24383;SDS011;12504;52.870;8.798;2023-07-24T04:15:52;6.65;;;4.63;;
24383;SDS011;12504;52.870;8.798;2023-07-24T04:18:18;4.78;;;3.40;;
24383;SDS011;12504;52.870;8.798;2023-07-24T04:20:43;7.45;;;4.55;;
24383;SDS011;12504;52.870;8.798;2023-07-24T04:23:09;7.43;;;4.68;;
24383;SDS011;12504;52.870;8.798;2023-07-24T04:25:35;7.40;;;4.22;;
24383;SDS011;12504;52.870;8.798;2023-07-24T04:28:00;9.10;;;5.00;;
24383;SDS011;12504;52.870;8.798;2023-07-24T04:30:26;5.70;;;4.32;;
24383;SDS011;12504;52.870;8.798;2023-07-24T04:32:51;6.18;;;3.97;;
24383;SDS011;12504;52.870;8.798;2023-07-24T04:35:17;5.18;;;3.80;;
24383;SDS011;12504;52.870;8.798;2023-07-24T04:37:43;5.25;;;3.35;;
24383;SDS011;12504;52.870;8.798;2023-07-24T04:40:08;7.13;;;3.83;;
24383;SDS011;12504;52.870;8.798;2023-07-24T04:42:35;6.90;;;3.75;;
24383;SDS011;12504;52.870;8.798;2023-07-24T04:45:01;5.18;;;3.60;;
24383;SDS011;12504;52.870;8.798;2023-07-24T04:47:27;6.68;;;4.20;;
24383;SDS011;12504;52.870;8.798;2023-07-24T04:49:53;5.40;;;3.88;;
24383;SDS011;12504;52.870;8.798;2023-07-24T04:52:20;6.97;;;4.50;;
24383;SDS011;12504;52.870;8.798;2023-07-24T04:54:46;5.53;;;4.07;;
24383;SDS011;12504;52.870;8.798;2023-07-24T04:57:11;5.50;;;4.20;;
24383;SDS011;12504;52.870;8.798;2023-07-24T04:59:37;5.35;;;3.92;;
24383;SDS011;12504;52.870;8.798;2023-07-24T05:02:03;7.70;;;4.05;;
24383;SDS011;12504;52.870;8.798;2023-07-24T05:04:28;6.28;;;5.07;;
24383;SDS011;12504;52.870;8.798;2023-07-24T05:06:54;9.48;;;5.70;;
24383;SDS011;12504;52.870;8.798;2023-07-24T05:09:20;9.73;;;5.38;;
24383;SDS011;12504;52.870;8.798;2023-07-24T05:11:46;8.15;;;5.35;;
24383;SDS011;12504;52.870;8.798;2023-07-24T05:14:12;10.43;;;5.47;;
24383;SDS011;12504;52.870;8.798;2023-07-24T05:16:38;8.18;;;6.38;;
24383;SDS011;12504;52.870;8.798;2023-07-24T05:19:03;9.30;;;6.00;;
24383;SDS011;12504;52.870;8.798;2023-07-24T05:21:29;7.70;;;6.32;;
24383;SDS011;12504;52.870;8.798;2023-07-24T05:23:55;11.27;;;6.78;;
24383;SDS011;12504;52.870;8.798;2023-07-24T05:26:21;9.27;;;6.65;;
24383;SDS011;12504;52.870;8.798;2023-07-24T05:28:47;7.82;;;6.20;;
24383;SDS011;12504;52.870;8.798;2023-07-24T05:31:13;7.93;;;5.75;;
24383;SDS011;12504;52.870;8.798;2023-07-24T05:33:39;9.77;;;5.82;;
24383;SDS011;12504;52.870;8.798;2023-07-24T05:36:04;9.45;;;6.05;;
24383;SDS011;12504;52.870;8.798;2023-07-24T05:38:30;8.70;;;6.32;;
24383;SDS011;12504;52.870;8.798;2023-07-24T05:40:56;8.15;;;6.07;;
24383;SDS011;12504;52.870;8.798;2023-07-24T05:43:23;9.38;;;6.13;;
24383;SDS011;12504;52.870;8.798;2023-07-24T05:45:50;9.02;;;6.93;;
24383;SDS011;12504;52.870;8.798;2023-07-24T05:48:16;7.38;;;5.93;;
24383;SDS011;12504;52.870;8.798;2023-07-24T05:50:45;8.95;;;7.20;;
24383;SDS011;12504;52.870;8.798;2023-07-24T05:53:11;7.25;;;5.55;;
24383;SDS011;12504;52.870;8.798;2023-07-24T05:55:36;8.98;;;6.85;;
24383;SDS011;12504;52.870;8.798;2023-07-24T05:58:02;9.23;;;7.28;;
24383;SDS011;12504;52.870;8.798;2023-07-24T06:00:28;9.40;;;7.28;;
24383;SDS011;12504;52.870;8.798;2023-07-24T06:02:54;10.70;;;7.60;;
24383;SDS011;12504;52.870;8.798;2023-07-24T06:05:20;10.05;;;7.32;;
24383;SDS011;12504;52.870;8.798;2023-07-24T06:07:46;13.30;;;8.23;;
24383;SDS011;12504;52.870;8.798;2023-07-24T06:10:12;10.85;;;7.60;;
24383;SDS011;12504;52.870;8.798;2023-07-24T06:12:38;12.30;;;8.68;;
24383;SDS011;12504;52.870;8.798;2023-07-24T06:15:04;12.95;;;9.18;;
24383;SDS011;12504;52.870;8.798;2023-07-24T06:17:31;15.00;;;9.88;;
24383;SDS011;12504;52.870;8.798;2023-07-24T06:19:56;14.77;;;9.65;;
24383;SDS011;12504;52.870;8.798;2023-07-24T06:22:22;13.15;;;10.10;;
24383;SDS011;12504;52.870;8.798;2023-07-24T06:24:48;14.48;;;9.90;;
24383;SDS011;12504;52.870;8.798;2023-07-24T06:27:14;13.13;;;10.20;;
24383;SDS011;12504;52.870;8.798;2023-07-24T06:29:40;19.00;;;12.38;;
24383;SDS011;12504;52.870;8.798;2023-07-24T06:32:06;17.98;;;12.25;;
24383;SDS011;12504;52.870;8.798;2023-07-24T06:34:33;18.48;;;11.55;;
24383;SDS011;12504;52.870;8.798;2023-07-24T06:36:59;17.98;;;12.13;;
24383;SDS011;12504;52.870;8.798;2023-07-24T06:39:25;18.92;;;12.80;;
24383;SDS011;12504;52.870;8.798;2023-07-24T06:41:54;19.40;;;14.13;;
24383;SDS011;12504;52.870;8.798;2023-07-24T06:44:20;21.53;;;14.40;;
24383;SDS011;12504;52.870;8.798;2023-07-24T06:46:46;22.35;;;14.27;;
24383;SDS011;12504;52.870;8.798;2023-07-24T06:49:11;22.75;;;14.70;;
24383;SDS011;12504;52.870;8.798;2023-07-24T06:51:37;26.55;;;14.20;;
24383;SDS011;12504;52.870;8.798;2023-07-24T06:54:04;23.13;;;13.93;;
24383;SDS011;12504;52.870;8.798;2023-07-24T06:56:30;22.92;;;15.45;;
24383;SDS011;12504;52.870;8.798;2023-07-24T06:58:56;24.67;;;16.35;;
24383;SDS011;12504;52.870;8.798;2023-07-24T07:01:21;24.30;;;15.95;;
24383;SDS011;12504;52.870;8.798;2023-07-24T07:03:47;25.48;;;15.95;;
24383;SDS011;12504;52.870;8.798;2023-07-24T07:06:13;27.73;;;16.52;;
24383;SDS011;12504;52.870;8.798;2023-07-24T07:08:39;23.85;;;15.63;;
24383;SDS011;12504;52.870;8.798;2023-07-24T07:11:04;24.92;;;16.88;;
24383;SDS011;12504;52.870;8.798;2023-07-24T07:13:30;27.20;;;17.10;;
24383;SDS011;12504;52.870;8.798;2023-07-24T07:15:56;25.23;;;16.05;;
24383;SDS011;12504;52.870;8.798;2023-07-24T07:18:22;26.80;;;17.02;;
24383;SDS011;12504;52.870;8.798;2023-07-24T07:20:48;25.92;;;15.70;;
24383;SDS011;12504;52.870;8.798;2023-07-24T07:23:15;28.15;;;16.10;;
24383;SDS011;12504;52.870;8.798;2023-07-24T07:25:41;22.95;;;15.70;;
24383;SDS011;12504;52.870;8.798;2023-07-24T07:28:14;26.30;;;16.47;;
24383;SDS011;12504;52.870;8.798;2023-07-24T07:33:06;22.98;;;15.15;;
24383;SDS011;12504;52.870;8.798;2023-07-24T07:35:33;22.00;;;15.48;;
24383;SDS011;12504;52.870;8.798;2023-07-24T07:37:59;21.60;;;13.85;;
24383;SDS011;12504;52.870;8.798;2023-07-24T07:40:25;22.88;;;13.32;;
24383;SDS011;12504;52.870;8.798;2023-07-24T07:42:52;21.77;;;13.93;;
24383;SDS011;12504;52.870;8.798;2023-07-24T07:45:18;25.08;;;15.60;;
24383;SDS011;12504;52.870;8.798;2023-07-24T07:47:44;23.15;;;14.48;;
24383;SDS011;12504;52.870;8.798;2023-07-24T07:50:10;21.70;;;14.95;;
24383;SDS011;12504;52.870;8.798;2023-07-24T07:52:36;20.30;;;14.90;;
24383;SDS011;12504;52.870;8.798;2023-07-24T07:55:02;19.02;;;13.32;;
24383;SDS011;12504;52.870;8.798;2023-07-24T07:57:27;20.50;;;14.40;;
24383;SDS011;12504;52.870;8.798;2023-07-24T07:59:53;19.35;;;13.18;;
24383;SDS011;12504;52.870;8.798;2023-07-24T08:02:19;20.20;;;11.70;;
24383;SDS011;12504;52.870;8.798;2023-07-24T08:04:47;18.33;;;12.18;;
24383;SDS011;12504;52.870;8.798;2023-07-24T08:07:12;15.75;;;11.32;;
24383;SDS011;12504;52.870;8.798;2023-07-24T08:09:38;16.08;;;10.70;;
24383;SDS011;12504;52.870;8.798;2023-07-24T08:12:04;16.05;;;11.75;;
24383;SDS011;12504;52.870;8.798;2023-07-24T08:14:30;15.25;;;10.70;;
24383;SDS011;12504;52.870;8.798;2023-07-24T08:16:55;14.07;;;9.40;;
24383;SDS011;12504;52.870;8.798;2023-07-24T08:19:21;13.45;;;9.40;;
24383;SDS011;12504;52.870;8.798;2023-07-24T08:21:47;12.02;;;8.75;;
24383;SDS011;12504;52.870;8.798;2023-07-24T08:24:12;15.23;;;9.65;;
24383;SDS011;12504;52.870;8.798;2023-07-24T08:26:38;13.93;;;9.63;;
24383;SDS011;12504;52.870;8.798;2023-07-24T08:29:04;16.38;;;10.68;;
24383;SDS011;12504;52.870;8.798;2023-07-24T08:31:30;12.65;;;9.20;;
24383;SDS011;12504;52.870;8.798;2023-07-24T08:33:56;16.17;;;9.73;;
24383;SDS011;12504;52.870;8.798;2023-07-24T08:36:22;14.50;;;10.20;;
24383;SDS011;12504;52.870;8.798;2023-07-24T08:38:47;15.27;;;9.27;;
24383;SDS011;12504;52.870;8.798;2023-07-24T08:41:13;14.82;;;10.20;;
24383;SDS011;12504;52.870;8.798;2023-07-24T08:43:40;13.32;;;9.65;;
24383;SDS011;12504;52.870;8.798;2023-07-24T08:46:08;14.55;;;9.27;;
24383;SDS011;12504;52.870;8.798;2023-07-24T08:48:38;15.45;;;9.98;;
24383;SDS011;12504;52.870;8.798;2023-07-24T08:51:06;15.90;;;10.18;;
24383;SDS011;12504;52.870;8.798;2023-07-24T08:53:34;13.80;;;9.38;;
24383;SDS011;12504;52.870;8.798;2023-07-24T08:56:02;15.10;;;9.52;;
24383;SDS011;12504;52.870;8.798;2023-07-24T08:58:28;13.10;;;9.43;;
24383;SDS011;12504;52.870;8.798;2023-07-24T09:00:56;13.65;;;10.05;;
24383;SDS011;12504;52.870;8.798;2023-07-24T09:03:22;14.65;;;9.95;;
24383;SDS011;12504;52.870;8.798;2023-07-24T09:05:48;14.20;;;10.18;;
24383;SDS011;12504;52.870;8.798;2023-07-24T09:08:14;13.32;;;9.50;;
24383;SDS011;12504;52.870;8.798;2023-07-24T09:10:40;16.35;;;10.57;;
24383;SDS011;12504;52.870;8.798;2023-07-24T09:13:06;15.95;;;9.88;;
24383;SDS011;12504;52.870;8.798;2023-07-24T09:15:42;10.95;;;7.53;;
24383;SDS011;12504;52.870;8.798;2023-07-24T09:18:08;15.30;;;9.65;;
24383;SDS011;12504;52.870;8.798;2023-07-24T09:20:38;16.65;;;9.27;;
24383;SDS011;12504;52.870;8.798;2023-07-24T09:23:06;13.35;;;8.98;;
24383;SDS011;12504;52.870;8.798;2023-07-24T09:25:34;13.38;;;8.88;;
24383;SDS011;12504;52.870;8.798;2023-07-24T09:28:01;13.13;;;8.65;;
24383;SDS011;12504;52.870;8.798;2023-07-24T09:30:34;11.02;;;6.95;;
24383;SDS011;12504;52.870;8.798;2023-07-24T09:33:00;8.35;;;5.85;;
24383;SDS011;12504;52.870;8.798;2023-07-24T09:35:25;7.90;;;6.03;;
24383;SDS011;12504;52.870;8.798;2023-07-24T09:38:06;11.27;;;5.88;;
24383;SDS011;12504;52.870;8.798;2023-07-24T09:40:43;10.13;;;7.30;;
24383;SDS011;12504;52.870;8.798;2023-07-24T09:43:22;13.05;;;5.88;;
24383;SDS011;12504;52.870;8.798;2023-07-24T09:45:50;8.60;;;5.50;;
24383;SDS011;12504;52.870;8.798;2023-07-24T09:48:17;6.80;;;5.18;;
24383;SDS011;12504;52.870;8.798;2023-07-24T09:50:44;7.35;;;4.90;;
24383;SDS011;12504;52.870;8.798;2023-07-24T09:53:14;8.10;;;5.28;;
24383;SDS011;12504;52.870;8.798;2023-07-24T09:55:58;8.27;;;5.53;;
24383;SDS011;12504;52.870;8.798;2023-07-24T09:58:26;7.47;;;4.50;;
24383;SDS011;12504;52.870;8.798;2023-07-24T10:00:53;7.10;;;5.05;;
24383;SDS011;12504;52.870;8.798;2023-07-24T10:03:20;8.63;;;4.25;;
24383;SDS011;12504;52.870;8.798;2023-07-24T10:05:47;5.55;;;3.75;;
24383;SDS011;12504;52.870;8.798;2023-07-24T10:08:16;5.45;;;3.58;;
24383;SDS011;12504;52.870;8.798;2023-07-24T10:10:43;4.35;;;3.30;;
24383;SDS011;12504;52.870;8.798;2023-07-24T10:13:09;7.38;;;3.28;;
24383;SDS011;12504;52.870;8.798;2023-07-24T10:15:37;4.05;;;3.20;;
24383;SDS011;12504;52.870;8.798;2023-07-24T10:18:07;5.07;;;3.20;;
24383;SDS011;12504;52.870;8.798;2023-07-24T10:20:40;3.70;;;2.97;;
24383;SDS011;12504;52.870;8.798;2023-07-24T10:23:10;4.35;;;3.38;;
24383;SDS011;12504;52.870;8.798;2023-07-24T10:25:43;4.57;;;3.50;;
24383;SDS011;12504;52.870;8.798;2023-07-24T10:28:11;5.55;;;3.58;;
24383;SDS011;12504;52.870;8.798;2023-07-24T10:30:37;4.50;;;3.17;;
24383;SDS011;12504;52.870;8.798;2023-07-24T10:33:11;5.80;;;3.33;;
24383;SDS011;12504;52.870;8.798;2023-07-24T10:35:39;5.43;;;3.70;;
24383;SDS011;12504;52.870;8.798;2023-07-24T10:38:06;7.68;;;4.03;;
24383;SDS011;12504;52.870;8.798;2023-07-24T10:40:32;5.70;;;3.72;;
24383;SDS011;12504;52.870;8.798;2023-07-24T10:43:05;6.20;;;4.13;;
24383;SDS011;12504;52.870;8.798;2023-07-24T10:48:14;8.13;;;4.80;;
24383;SDS011;12504;52.870;8.798;2023-07-24T10:50:44;7.70;;;4.93;;
24383;SDS011;12504;52.870;8.798;2023-07-24T10:53:16;5.37;;;4.20;;
24383;SDS011;12504;52.870;8.798;2023-07-24T10:55:43;6.90;;;4.60;;
24383;SDS011;12504;52.870;8.798;2023-07-24T10:58:11;6.05;;;3.85;;
24383;SDS011;12504;52.870;8.798;2023-07-24T11:00:40;5.18;;;4.18;;
24383;SDS011;12504;52.870;8.798;2023-07-24T11:05:42;5.68;;;4.32;;
24383;SDS011;12504;52.870;8.798;2023-07-24T11:08:17;7.07;;;4.55;;
24383;SDS011;12504;52.870;8.798;2023-07-24T11:10:50;5.93;;;4.72;;
24383;SDS011;12504;52.870;8.798;2023-07-24T11:13:21;5.32;;;4.40;;
24383;SDS011;12504;52.870;8.798;2023-07-24T11:15:48;8.10;;;4.35;;
24383;SDS011;12504;52.870;8.798;2023-07-24T11:18:15;5.60;;;3.97;;
24383;SDS011;12504;52.870;8.798;2023-07-24T11:20:45;5.65;;;4.38;;
24383;SDS011;12504;52.870;8.798;2023-07-24T11:23:15;8.75;;;4.25;;
24383;SDS011;12504;52.870;8.798;2023-07-24T11:25:41;6.38;;;4.07;;
24383;SDS011;12504;52.870;8.798;2023-07-24T11:28:08;6.80;;;4.47;;
24383;SDS011;12504;52.870;8.798;2023-07-24T11:30:35;6.68;;;4.07;;
24383;SDS011;12504;52.870;8.798;2023-07-24T11:33:04;6.20;;;4.20;;
24383;SDS011;12504;52.870;8.798;2023-07-24T11:35:33;8.18;;;5.72;;
24383;SDS011;12504;52.870;8.798;2023-07-24T11:38:00;7.25;;;4.60;;
24383;SDS011;12504;52.870;8.798;2023-07-24T11:43:00;7.65;;;4.60;;
24383;SDS011;12504;52.870;8.798;2023-07-24T11:45:26;7.75;;;4.88;;
24383;SDS011;12504;52.870;8.798;2023-07-24T11:47:52;5.82;;;4.53;;
24383;SDS011;12504;52.870;8.798;2023-07-24T11:50:21;6.20;;;4.40;;
24383;SDS011;12504;52.870;8.798;2023-07-24T11:52:49;5.38;;;4.47;;
24383;SDS011;12504;52.870;8.798;2023-07-24T11:55:17;6.88;;;4.28;;
24383;SDS011;12504;52.870;8.798;2023-07-24T11:57:54;5.35;;;3.95;;
24383;SDS011;12504;52.870;8.798;2023-07-24T12:00:24;5.97;;;4.45;;
24383;SDS011;12504;52.870;8.798;2023-07-24T12:02:50;5.15;;;4.15;;
24383;SDS011;12504;52.870;8.798;2023-07-24T12:05:16;5.95;;;3.83;;
24383;SDS011;12504;52.870;8.798;2023-07-24T12:07:42;6.88;;;4.53;;
24383;SDS011;12504;52.870;8.798;2023-07-24T12:10:10;5.88;;;4.03;;
24383;SDS011;12504;52.870;8.798;2023-07-24T12:12:44;6.07;;;3.60;;
24383;SDS011;12504;52.870;8.798;2023-07-24T12:15:11;7.72;;;4.60;;
24383;SDS011;12504;52.870;8.798;2023-07-24T12:17:38;6.40;;;4.50;;
24383;SDS011;12504;52.870;8.798;2023-07-24T12:20:06;6.07;;;3.97;;
24383;SDS011;12504;52.870;8.798;2023-07-24T12:25:00;4.57;;;3.40;;
24383;SDS011;12504;52.870;8.798;2023-07-24T12:27:27;5.38;;;4.07;;
24383;SDS011;12504;52.870;8.798;2023-07-24T12:29:52;5.45;;;4.28;;
24383;SDS011;12504;52.870;8.798;2023-07-24T12:32:18;6.90;;;4.45;;
24383;SDS011;12504;52.870;8.798;2023-07-24T12:34:48;8.80;;;4.32;;
24383;SDS011;12504;52.870;8.798;2023-07-24T12:37:16;4.55;;;3.60;;
24383;SDS011;12504;52.870;8.798;2023-07-24T12:39:45;5.80;;;3.28;;
24383;SDS011;12504;52.870;8.798;2023-07-24T12:42:11;5.60;;;3.60;;
24383;SDS011;12504;52.870;8.798;2023-07-24T12:44:37;6.03;;;4.13;;
24383;SDS011;12504;52.870;8.798;2023-07-24T12:47:04;5.78;;;4.10;;
24383;SDS011;12504;52.870;8.798;2023-07-24T12:49:30;6.10;;;4.40;;
24383;SDS011;12504;52.870;8.798;2023-07-24T12:51:56;5.68;;;4.53;;
24383;SDS011;12504;52.870;8.798;2023-07-24T12:54:22;7.65;;;4.25;;
24383;SDS011;12504;52.870;8.798;2023-07-24T12:56:51;5.15;;;3.85;;
24383;SDS011;12504;52.870;8.798;2023-07-24T12:59:17;9.75;;;3.55;;
24383;SDS011;12504;52.870;8.798;2023-07-24T13:01:43;5.00;;;4.50;;
24383;SDS011;12504;52.870;8.798;2023-07-24T13:04:09;7.72;;;4.00;;
24383;SDS011;12504;52.870;8.798;2023-07-24T13:06:35;6.20;;;4.22;;
24383;SDS011;12504;52.870;8.798;2023-07-24T13:09:01;8.10;;;4.35;;
24383;SDS011;12504;52.870;8.798;2023-07-24T13:11:28;8.68;;;4.85;;
24383;SDS011;12504;52.870;8.798;2023-07-24T13:13:54;6.05;;;4.07;;
24383;SDS011;12504;52.870;8.798;2023-07-24T13:16:20;6.50;;;4.03;;
24383;SDS011;12504;52.870;8.798;2023-07-24T13:18:46;6.70;;;3.90;;
24383;SDS011;12504;52.870;8.798;2023-07-24T13:21:11;5.15;;;3.70;;
24383;SDS011;12504;52.870;8.798;2023-07-24T13:23:39;8.35;;;4.40;;
24383;SDS011;12504;52.870;8.798;2023-07-24T13:26:05;6.10;;;3.38;;
24383;SDS011;12504;52.870;8.798;2023-07-24T13:28:32;6.85;;;3.85;;
24383;SDS011;12504;52.870;8.798;2023-07-24T13:30:58;4.40;;;3.67;;
24383;SDS011;12504;52.870;8.798;2023-07-24T13:33:24;6.35;;;3.53;;
24383;SDS011;12504;52.870;8.798;2023-07-24T13:35:49;4.72;;;3.65;;
24383;SDS011;12504;52.870;8.798;2023-07-24T13:38:18;5.78;;;4.00;;
24383;SDS011;12504;52.870;8.798;2023-07-24T13:40:44;8.13;;;3.93;;
24383;SDS011;12504;52.870;8.798;2023-07-24T13:43:10;6.03;;;3.90;;
24383;SDS011;12504;52.870;8.798;2023-07-24T13:45:36;6.43;;;3.42;;
24383;SDS011;12504;52.870;8.798;2023-07-24T13:48:01;5.57;;;3.92;;
24383;SDS011;12504;52.870;8.798;2023-07-24T13:50:27;4.50;;;3.03;;
24383;SDS011;12504;52.870;8.798;2023-07-24T13:52:53;8.40;;;3.40;;
24383;SDS011;12504;52.870;8.798;2023-07-24T13:55:19;4.93;;;3.53;;
24383;SDS011;12504;52.870;8.798;2023-07-24T13:57:45;8.13;;;3.85;;
24383;SDS011;12504;52.870;8.798;2023-07-24T14:00:10;4.38;;;3.28;;
24383;SDS011;12504;52.870;8.798;2023-07-24T14:02:40;5.70;;;3.30;;
24383;SDS011;12504;52.870;8.798;2023-07-24T14:05:06;5.72;;;3.20;;
24383;SDS011;12504;52.870;8.798;2023-07-24T14:07:32;7.63;;;3.60;;
24383;SDS011;12504;52.870;8.798;2023-07-24T14:09:58;3.95;;;3.33;;
24383;SDS011;12504;52.870;8.798;2023-07-24T14:12:23;3.88;;;2.78;;
24383;SDS011;12504;52.870;8.798;2023-07-24T14:14:49;4.25;;;3.08;;
24383;SDS011;12504;52.870;8.798;2023-07-24T14:17:15;4.50;;;3.20;;
24383;SDS011;12504;52.870;8.798;2023-07-24T14:19:40;7.45;;;3.80;;
24383;SDS011;12504;52.870;8.798;2023-07-24T14:22:06;4.80;;;2.67;;
24383;SDS011;12504;52.870;8.798;2023-07-24T14:24:32;4.53;;;3.17;;
24383;SDS011;12504;52.870;8.798;2023-07-24T14:26:57;3.45;;;2.63;;
24383;SDS011;12504;52.870;8.798;2023-07-24T14:29:23;4.07;;;2.75;;
24383;SDS011;12504;52.870;8.798;2023-07-24T14:31:49;4.88;;;3.17;;
24383;SDS011;12504;52.870;8.798;2023-07-24T14:34:14;5.60;;;3.38;;
24383;SDS011;12504;52.870;8.798;2023-07-24T14:36:40;5.55;;;3.30;;
24383;SDS011;12504;52.870;8.798;2023-07-24T14:39:06;5.68;;;3.70;;
24383;SDS011;12504;52.870;8.798;2023-07-24T14:41:33;4.05;;;3.05;;
24383;SDS011;12504;52.870;8.798;2023-07-24T14:43:59;6.97;;;3.45;;
24383;SDS011;12504;52.870;8.798;2023-07-24T14:46:24;4.55;;;4.03;;
24383;SDS011;12504;52.870;8.798;2023-07-24T14:48:50;5.03;;;3.45;;
24383;SDS011;12504;52.870;8.798;2023-07-24T14:51:17;5.32;;;3.88;;
24383;SDS011;12504;52.870;8.798;2023-07-24T14:53:43;6.68;;;3.80;;
24383;SDS011;12504;52.870;8.798;2023-07-24T14:56:08;4.93;;;3.05;;